createdAt,value
2022-11-13T00:00:34.839Z,1013.74
2022-11-13T00:01:34.818Z,1013.75
2022-11-13T00:02:34.835Z,1013.75
2022-11-13T00:03:34.789Z,1013.73
2022-11-13T00:04:34.778Z,1013.76
2022-11-13T00:05:34.788Z,1013.74
2022-11-13T00:06:34.749Z,1013.70
2022-11-13T00:07:34.758Z,1013.75
2022-11-13T00:08:34.722Z,1013.71
2022-11-13T00:09:34.718Z,1013.73
2022-11-13T00:10:34.717Z,1013.71
2022-11-13T00:11:34.699Z,1013.71
2022-11-13T00:12:34.689Z,1013.73
2022-11-13T00:13:34.660Z,1013.68
2022-11-13T00:14:34.638Z,1013.71
2022-11-13T00:15:34.706Z,1013.70
2022-11-13T00:16:34.625Z,1013.67
2022-11-13T00:17:34.612Z,1013.67
2022-11-13T00:18:34.717Z,1013.62
2022-11-13T00:19:34.686Z,1013.64
2022-11-13T00:20:34.608Z,1013.65
2022-11-13T00:21:34.559Z,1013.63
2022-11-13T00:22:34.540Z,1013.65
2022-11-13T00:23:34.537Z,1013.65
2022-11-13T00:24:34.642Z,1013.61
2022-11-13T00:25:34.525Z,1013.59
2022-11-13T00:26:34.487Z,1013.61
2022-11-13T00:27:34.482Z,1013.61
2022-11-13T00:28:34.459Z,1013.59
2022-11-13T00:29:34.457Z,1013.60
2022-11-13T00:30:34.459Z,1013.63
2022-11-13T00:31:34.440Z,1013.64
2022-11-13T00:32:34.407Z,1013.59
2022-11-13T00:34:50.754Z,1013.56
2022-11-13T00:35:35.403Z,1013.52
2022-11-13T00:36:34.437Z,1013.51
2022-11-13T00:37:34.404Z,1013.47
2022-11-13T00:38:34.368Z,1013.48
2022-11-13T00:39:34.326Z,1013.51
2022-11-13T00:40:34.328Z,1013.48
2022-11-13T00:41:34.305Z,1013.51
2022-11-13T00:42:34.278Z,1013.49
2022-11-13T00:43:34.369Z,1013.47
2022-11-13T00:44:34.269Z,1013.46
2022-11-13T00:45:34.279Z,1013.43
2022-11-13T00:46:34.233Z,1013.44
2022-11-13T00:47:34.238Z,1013.40
2022-11-13T00:48:34.253Z,1013.41
2022-11-13T00:49:34.224Z,1013.40
2022-11-13T00:50:34.185Z,1013.37
2022-11-13T00:51:34.176Z,1013.36
2022-11-13T00:52:34.157Z,1013.38
2022-11-13T00:53:34.136Z,1013.37
2022-11-13T00:54:34.130Z,1013.35
2022-11-13T00:55:34.155Z,1013.36
2022-11-13T00:56:34.101Z,1013.38
2022-11-13T00:57:34.096Z,1013.39
2022-11-13T00:58:34.071Z,1013.42
2022-11-13T00:59:34.085Z,1013.39
2022-11-13T01:00:34.076Z,1013.40
2022-11-13T01:01:34.068Z,1013.36
2022-11-13T01:02:34.026Z,1013.40
2022-11-13T01:03:34.022Z,1013.36
2022-11-13T01:04:34.005Z,1013.38
2022-11-13T01:05:33.996Z,1013.36
2022-11-13T01:06:33.984Z,1013.35
2022-11-13T01:07:33.958Z,1013.29
2022-11-13T01:08:33.957Z,1013.29
2022-11-13T01:09:33.938Z,1013.26
2022-11-13T01:10:33.938Z,1013.31
2022-11-13T01:11:33.896Z,1013.34
2022-11-13T01:12:33.946Z,1013.31
2022-11-13T01:13:33.887Z,1013.31
2022-11-13T01:14:33.868Z,1013.34
2022-11-13T01:15:33.876Z,1013.32
2022-11-13T01:16:33.844Z,1013.36
2022-11-13T01:17:33.829Z,1013.35
2022-11-13T01:18:33.825Z,1013.38
2022-11-13T01:19:33.868Z,1013.38
2022-11-13T01:20:33.816Z,1013.37
2022-11-13T01:21:33.765Z,1013.40
2022-11-13T01:22:33.758Z,1013.39
2022-11-13T01:23:33.758Z,1013.34
2022-11-13T01:24:33.737Z,1013.24
2022-11-13T01:25:33.737Z,1013.23
2022-11-13T01:26:33.716Z,1013.22
2022-11-13T01:27:33.698Z,1013.20
2022-11-13T01:28:33.702Z,1013.22
2022-11-13T01:29:33.686Z,1013.23
2022-11-13T01:30:33.690Z,1013.24
2022-11-13T01:31:33.645Z,1013.23
2022-11-13T01:32:33.647Z,1013.28
2022-11-13T01:33:33.624Z,1013.24
2022-11-13T01:34:33.615Z,1013.23
2022-11-13T01:35:33.616Z,1013.22
2022-11-13T01:36:33.576Z,1013.21
2022-11-13T01:37:33.567Z,1013.16
2022-11-13T01:38:36.719Z,1013.19
2022-11-13T01:39:33.597Z,1013.18
2022-11-13T01:40:33.556Z,1013.21
2022-11-13T01:41:33.524Z,1013.20
2022-11-13T01:42:33.506Z,1013.22
2022-11-13T01:43:33.504Z,1013.21
2022-11-13T01:44:33.494Z,1013.20
2022-11-13T01:45:33.497Z,1013.19
2022-11-13T01:46:33.468Z,1013.19
2022-11-13T01:47:33.435Z,1013.20
2022-11-13T01:48:33.451Z,1013.19
2022-11-13T01:49:33.416Z,1013.15
2022-11-13T01:50:33.407Z,1013.14
2022-11-13T01:51:33.406Z,1013.06
2022-11-13T01:52:33.386Z,1013.11
2022-11-13T01:53:33.367Z,1013.06
2022-11-13T01:54:33.366Z,1013.02
2022-11-13T01:55:33.385Z,1012.97
2022-11-13T01:56:33.356Z,1013.00
2022-11-13T01:57:33.357Z,1013.00
2022-11-13T01:58:33.315Z,1013.03
2022-11-13T01:59:33.295Z,1013.03
2022-11-13T02:00:33.293Z,1013.05
2022-11-13T02:01:33.368Z,1013.05
2022-11-13T02:02:33.257Z,1013.05
2022-11-13T02:03:33.257Z,1013.04
2022-11-13T02:04:33.234Z,1013.04
2022-11-13T02:05:33.214Z,1013.04
2022-11-13T02:06:33.238Z,1013.00
2022-11-13T02:07:33.190Z,1012.98
2022-11-13T02:08:33.174Z,1013.00
2022-11-13T02:09:33.158Z,1012.95
2022-11-13T02:10:33.157Z,1012.97
2022-11-13T02:11:33.167Z,1012.98
2022-11-13T02:12:33.141Z,1012.95
2022-11-13T02:13:33.118Z,1012.94
2022-11-13T02:14:33.109Z,1012.91
2022-11-13T02:15:33.128Z,1012.95
2022-11-13T02:16:33.099Z,1012.91
2022-11-13T02:17:33.078Z,1012.92
2022-11-13T02:18:33.076Z,1012.90
2022-11-13T02:19:33.048Z,1012.85
2022-11-13T02:20:33.038Z,1012.86
2022-11-13T02:21:33.037Z,1012.84
2022-11-13T02:22:33.008Z,1012.82
2022-11-13T02:23:33.007Z,1012.85
2022-11-13T02:24:33.374Z,1012.88
2022-11-13T02:25:32.967Z,1012.82
2022-11-13T02:26:32.986Z,1012.85
2022-11-13T02:27:32.937Z,1012.84
2022-11-13T02:28:32.931Z,1012.90
2022-11-13T02:29:32.927Z,1012.85
2022-11-13T02:30:32.907Z,1012.83
2022-11-13T02:31:32.897Z,1012.81
2022-11-13T02:32:32.905Z,1012.79
2022-11-13T02:33:32.938Z,1012.75
2022-11-13T02:34:32.911Z,1012.77
2022-11-13T02:35:32.877Z,1012.72
2022-11-13T02:36:32.836Z,1012.74
2022-11-13T02:37:32.829Z,1012.72
2022-11-13T02:38:32.807Z,1012.73
2022-11-13T02:39:32.788Z,1012.74
2022-11-13T02:40:32.779Z,1012.73
2022-11-13T02:41:32.766Z,1012.74
2022-11-13T02:42:32.776Z,1012.76
2022-11-13T02:43:32.770Z,1012.76
2022-11-13T02:44:32.726Z,1012.76
2022-11-13T02:45:32.717Z,1012.76
2022-11-13T02:46:32.706Z,1012.74
2022-11-13T02:47:32.700Z,1012.73
2022-11-13T02:48:32.685Z,1012.73
2022-11-13T02:49:32.681Z,1012.74
2022-11-13T02:50:32.646Z,1012.72
2022-11-13T02:51:32.641Z,1012.77
2022-11-13T02:52:32.663Z,1012.76
2022-11-13T02:53:32.605Z,1012.76
2022-11-13T02:54:32.598Z,1012.72
2022-11-13T02:55:32.586Z,1012.75
2022-11-13T02:56:32.566Z,1012.73
2022-11-13T02:57:32.592Z,1012.75
2022-11-13T02:58:32.549Z,1012.75
2022-11-13T02:59:32.543Z,1012.74
2022-11-13T03:00:32.516Z,1012.72
2022-11-13T03:01:32.537Z,1012.72
2022-11-13T03:02:32.506Z,1012.73
2022-11-13T03:03:56.378Z,1012.73
2022-11-13T03:04:57.281Z,1012.72
2022-11-13T03:05:33.457Z,1012.70
2022-11-13T03:06:32.439Z,1012.71
2022-11-13T03:07:32.447Z,1012.75
2022-11-13T03:08:33.850Z,1012.68
2022-11-13T03:09:32.397Z,1012.70
2022-11-13T03:10:32.385Z,1012.73
2022-11-13T03:11:32.379Z,1012.73
2022-11-13T03:12:32.376Z,1012.74
2022-11-13T03:13:32.366Z,1012.74
2022-11-13T03:14:32.342Z,1012.73
2022-11-13T03:15:32.326Z,1012.69
2022-11-13T03:16:32.316Z,1012.71
2022-11-13T03:17:32.324Z,1012.67
2022-11-13T03:18:32.310Z,1012.68
2022-11-13T03:19:32.282Z,1012.66
2022-11-13T03:20:32.256Z,1012.71
2022-11-13T03:21:32.281Z,1012.71
2022-11-13T03:22:32.257Z,1012.70
2022-11-13T03:23:32.225Z,1012.70
2022-11-13T03:24:32.206Z,1012.68
2022-11-13T03:25:32.205Z,1012.69
2022-11-13T03:26:32.186Z,1012.67
2022-11-13T03:27:32.228Z,1012.67
2022-11-13T03:28:32.159Z,1012.66
2022-11-13T03:29:32.157Z,1012.67
2022-11-13T03:30:32.136Z,1012.66
2022-11-13T03:31:32.118Z,1012.64
2022-11-13T03:32:32.125Z,1012.63
2022-11-13T03:33:32.108Z,1012.62
2022-11-13T03:34:32.077Z,1012.59
2022-11-13T03:35:38.069Z,1012.59
2022-11-13T03:36:33.053Z,1012.56
2022-11-13T03:37:32.068Z,1012.56
2022-11-13T03:38:32.047Z,1012.54
2022-11-13T03:39:32.027Z,1012.55
2022-11-13T03:40:32.042Z,1012.55
2022-11-13T03:41:32.004Z,1012.60
2022-11-13T03:42:31.996Z,1012.57
2022-11-13T03:43:31.975Z,1012.56
2022-11-13T03:44:31.947Z,1012.54
2022-11-13T03:45:31.955Z,1012.53
2022-11-13T03:46:31.934Z,1012.52
2022-11-13T03:47:31.946Z,1012.50
2022-11-13T03:48:32.033Z,1012.48
2022-11-13T03:49:31.897Z,1012.50
2022-11-13T03:50:31.884Z,1012.52
2022-11-13T03:51:31.880Z,1012.47
2022-11-13T03:52:31.887Z,1012.46
2022-11-13T03:53:31.844Z,1012.48
2022-11-13T03:54:31.835Z,1012.44
2022-11-13T03:55:31.825Z,1012.41
2022-11-13T03:56:31.799Z,1012.41
2022-11-13T03:57:31.813Z,1012.49
2022-11-13T03:58:31.906Z,1012.42
2022-11-13T03:59:31.775Z,1012.44
2022-11-13T04:00:31.745Z,1012.39
2022-11-13T04:01:31.789Z,1012.42
2022-11-13T04:02:31.733Z,1012.40
2022-11-13T04:03:31.714Z,1012.44
2022-11-13T04:04:31.700Z,1012.38
2022-11-13T04:05:31.691Z,1012.41
2022-11-13T04:06:31.694Z,1012.39
2022-11-13T04:07:31.685Z,1012.42
2022-11-13T04:08:31.644Z,1012.41
2022-11-13T04:09:31.644Z,1012.45
2022-11-13T04:10:31.621Z,1012.41
2022-11-13T04:11:31.621Z,1012.42
2022-11-13T04:12:31.604Z,1012.43
2022-11-13T04:13:31.593Z,1012.40
2022-11-13T04:14:31.563Z,1012.42
2022-11-13T04:15:31.562Z,1012.47
2022-11-13T04:16:31.545Z,1012.48
2022-11-13T04:17:31.553Z,1012.47
2022-11-13T04:18:31.520Z,1012.44
2022-11-13T04:19:31.512Z,1012.44
2022-11-13T04:20:31.484Z,1012.49
2022-11-13T04:21:31.483Z,1012.46
2022-11-13T04:22:31.485Z,1012.43
2022-11-13T04:23:31.462Z,1012.43
2022-11-13T04:24:31.444Z,1012.44
2022-11-13T04:25:31.447Z,1012.43
2022-11-13T04:26:31.413Z,1012.44
2022-11-13T04:27:31.455Z,1012.40
2022-11-13T04:28:31.903Z,1012.39
2022-11-13T04:29:31.390Z,1012.35
2022-11-13T04:30:31.373Z,1012.37
2022-11-13T04:31:31.353Z,1012.37
2022-11-13T04:32:31.352Z,1012.36
2022-11-13T04:33:31.352Z,1012.37
2022-11-13T04:34:31.327Z,1012.31
2022-11-13T04:35:31.301Z,1012.30
2022-11-13T04:36:31.300Z,1012.27
2022-11-13T04:37:31.272Z,1012.29
2022-11-13T04:38:31.634Z,1012.26
2022-11-13T04:39:31.259Z,1012.24
2022-11-13T04:40:31.240Z,1012.24
2022-11-13T04:41:31.234Z,1012.23
2022-11-13T04:42:31.219Z,1012.22
2022-11-13T04:43:31.222Z,1012.23
2022-11-13T04:44:31.181Z,1012.22
2022-11-13T04:45:31.182Z,1012.23
2022-11-13T04:46:31.165Z,1012.24
2022-11-13T04:47:31.154Z,1012.20
2022-11-13T04:48:31.348Z,1012.21
2022-11-13T04:49:31.134Z,1012.20
2022-11-13T04:50:31.111Z,1012.18
2022-11-13T04:51:31.092Z,1012.17
2022-11-13T04:52:31.092Z,1012.18
2022-11-13T04:53:31.096Z,1012.16
2022-11-13T04:54:31.062Z,1012.17
2022-11-13T04:55:31.062Z,1012.15
2022-11-13T04:56:31.039Z,1012.14
2022-11-13T04:57:31.027Z,1012.11
2022-11-13T04:58:31.284Z,1012.09
2022-11-13T04:59:31.002Z,1012.04
2022-11-13T05:00:30.982Z,1012.03
2022-11-13T05:01:31.086Z,1012.03
2022-11-13T05:02:30.961Z,1011.98
2022-11-13T05:03:30.965Z,1011.99
2022-11-13T05:04:30.931Z,1011.92
2022-11-13T05:05:30.922Z,1011.91
2022-11-13T05:06:30.902Z,1011.91
2022-11-13T05:07:30.891Z,1011.95
2022-11-13T05:08:31.188Z,1011.90
2022-11-13T05:09:30.872Z,1011.93
2022-11-13T05:10:30.851Z,1011.87
2022-11-13T05:11:30.842Z,1011.82
2022-11-13T05:12:30.841Z,1011.85
2022-11-13T05:13:30.833Z,1011.85
2022-11-13T05:14:30.802Z,1011.85
2022-11-13T05:15:30.792Z,1011.83
2022-11-13T05:16:30.782Z,1011.79
2022-11-13T05:17:30.760Z,1011.79
2022-11-13T05:18:31.128Z,1011.82
2022-11-13T05:19:30.731Z,1011.83
2022-11-13T05:20:30.720Z,1011.79
2022-11-13T05:21:30.717Z,1011.79
2022-11-13T05:22:30.691Z,1011.75
2022-11-13T05:23:30.700Z,1011.79
2022-11-13T05:24:30.670Z,1011.80
2022-11-13T05:25:30.651Z,1011.79
2022-11-13T05:26:30.641Z,1011.77
2022-11-13T05:27:30.629Z,1011.76
2022-11-13T05:28:31.027Z,1011.74
2022-11-13T05:29:30.600Z,1011.74
2022-11-13T05:30:30.590Z,1011.75
2022-11-13T05:31:30.581Z,1011.77
2022-11-13T05:32:30.578Z,1011.75
2022-11-13T05:33:30.570Z,1011.73
2022-11-13T05:34:30.540Z,1011.74
2022-11-13T05:35:30.520Z,1011.69
2022-11-13T05:36:30.532Z,1011.69
2022-11-13T05:37:30.506Z,1011.69
2022-11-13T05:38:30.761Z,1011.67
2022-11-13T05:39:30.480Z,1011.65
2022-11-13T05:40:30.459Z,1011.61
2022-11-13T05:41:30.449Z,1011.60
2022-11-13T05:42:30.440Z,1011.60
2022-11-13T05:43:30.449Z,1011.60
2022-11-13T05:44:30.409Z,1011.62
2022-11-13T05:45:30.399Z,1011.64
2022-11-13T05:46:30.410Z,1011.63
2022-11-13T05:47:30.369Z,1011.62
2022-11-13T05:48:30.879Z,1011.63
2022-11-13T05:49:30.340Z,1011.59
2022-11-13T05:50:30.330Z,1011.59
2022-11-13T05:51:30.309Z,1011.60
2022-11-13T05:52:30.310Z,1011.60
2022-11-13T05:53:30.309Z,1011.57
2022-11-13T05:54:30.280Z,1011.57
2022-11-13T05:55:30.277Z,1011.56
2022-11-13T05:56:30.249Z,1011.54
2022-11-13T05:57:30.239Z,1011.58
2022-11-13T05:58:30.621Z,1011.57
2022-11-13T05:59:30.208Z,1011.52
2022-11-13T06:00:30.207Z,1011.49
2022-11-13T06:01:30.236Z,1011.48
2022-11-13T06:02:30.179Z,1011.53
2022-11-13T06:03:30.183Z,1011.53
2022-11-13T06:04:30.147Z,1011.58
2022-11-13T06:05:30.127Z,1011.55
2022-11-13T06:06:30.137Z,1011.54
2022-11-13T06:07:30.110Z,1011.56
2022-11-13T06:08:30.489Z,1011.51
2022-11-13T06:09:30.096Z,1011.47
2022-11-13T06:10:30.068Z,1011.44
2022-11-13T06:11:30.061Z,1011.43
2022-11-13T06:12:30.047Z,1011.47
2022-11-13T06:13:30.046Z,1011.46
2022-11-13T06:14:30.023Z,1011.47
2022-11-13T06:15:30.008Z,1011.40
2022-11-13T06:16:29.999Z,1011.44
2022-11-13T06:17:29.980Z,1011.43
2022-11-13T06:18:30.390Z,1011.40
2022-11-13T06:19:29.947Z,1011.41
2022-11-13T06:20:29.941Z,1011.39
2022-11-13T06:21:29.917Z,1011.42
2022-11-13T06:22:29.917Z,1011.39
2022-11-13T06:23:29.925Z,1011.41
2022-11-13T06:24:29.889Z,1011.39
2022-11-13T06:25:29.884Z,1011.39
2022-11-13T06:26:29.870Z,1011.40
2022-11-13T06:27:29.845Z,1011.38
2022-11-13T06:28:30.175Z,1011.35
2022-11-13T06:29:29.841Z,1011.35
2022-11-13T06:30:29.818Z,1011.36
2022-11-13T06:31:29.801Z,1011.33
2022-11-13T06:32:29.790Z,1011.40
2022-11-13T06:33:29.777Z,1011.35
2022-11-13T06:34:29.778Z,1011.35
2022-11-13T06:35:29.746Z,1011.29
2022-11-13T06:36:29.736Z,1011.29
2022-11-13T06:37:34.488Z,1011.27
2022-11-13T06:38:31.253Z,1011.29
2022-11-13T06:39:29.727Z,1011.26
2022-11-13T06:40:29.706Z,1011.24
2022-11-13T06:41:29.667Z,1011.24
2022-11-13T06:42:29.667Z,1011.20
2022-11-13T06:43:29.647Z,1011.21
2022-11-13T06:44:29.655Z,1011.21
2022-11-13T06:45:29.607Z,1011.17
2022-11-13T06:46:29.608Z,1011.21
2022-11-13T06:47:29.596Z,1011.20
2022-11-13T06:48:29.850Z,1011.18
2022-11-13T06:49:29.589Z,1011.19
2022-11-13T06:50:29.557Z,1011.17
2022-11-13T06:51:29.536Z,1011.13
2022-11-13T06:52:29.527Z,1011.16
2022-11-13T06:53:29.517Z,1011.13
2022-11-13T06:54:29.532Z,1011.12
2022-11-13T06:55:29.487Z,1011.11
2022-11-13T06:56:29.478Z,1011.18
2022-11-13T06:57:29.467Z,1011.14
2022-11-13T06:58:29.886Z,1011.16
2022-11-13T06:59:29.458Z,1011.21
2022-11-13T07:00:35.243Z,1011.22
2022-11-13T07:01:30.444Z,1011.22
2022-11-13T07:02:29.407Z,1011.21
2022-11-13T07:03:29.389Z,1011.18
2022-11-13T07:04:29.420Z,1011.22
2022-11-13T07:05:29.355Z,1011.20
2022-11-13T07:06:29.356Z,1011.15
2022-11-13T07:07:29.382Z,1011.15
2022-11-13T07:08:29.766Z,1011.11
2022-11-13T07:09:29.331Z,1011.12
2022-11-13T07:10:29.361Z,1011.12
2022-11-13T07:11:29.278Z,1011.12
2022-11-13T07:12:29.279Z,1011.13
2022-11-13T07:13:29.256Z,1011.17
2022-11-13T07:14:29.267Z,1011.17
2022-11-13T07:15:29.237Z,1011.17
2022-11-13T07:16:44.165Z,1011.15
2022-11-13T07:17:30.211Z,1011.17
2022-11-13T07:18:29.579Z,1011.16
2022-11-13T07:19:29.198Z,1011.15
2022-11-13T07:20:29.311Z,1011.11
2022-11-13T07:21:29.156Z,1011.18
2022-11-13T07:22:29.148Z,1011.16
2022-11-13T07:23:29.127Z,1011.17
2022-11-13T07:24:29.128Z,1011.10
2022-11-13T07:25:29.110Z,1011.13
2022-11-13T07:26:29.109Z,1011.08
2022-11-13T07:27:29.077Z,1011.04
2022-11-13T07:28:29.330Z,1011.03
2022-11-13T07:29:29.066Z,1011.03
2022-11-13T07:30:29.108Z,1011.03
2022-11-13T07:31:29.026Z,1011.04
2022-11-13T07:32:29.028Z,1011.04
2022-11-13T07:33:29.011Z,1011.02
2022-11-13T07:34:29.016Z,1011.00
2022-11-13T07:35:28.976Z,1011.01
2022-11-13T07:36:28.975Z,1011.03
2022-11-13T07:37:28.946Z,1011.02
2022-11-13T07:38:29.251Z,1010.97
2022-11-13T07:39:28.955Z,1010.97
2022-11-13T07:40:28.981Z,1010.95
2022-11-13T07:41:28.895Z,1010.99
2022-11-13T07:42:28.900Z,1010.96
2022-11-13T07:43:28.878Z,1010.91
2022-11-13T07:44:53.054Z,1010.98
2022-11-13T07:45:29.846Z,1010.94
2022-11-13T07:46:28.835Z,1010.96
2022-11-13T07:47:28.825Z,1010.99
2022-11-13T07:48:29.111Z,1010.98
2022-11-13T07:49:28.816Z,1011.00
2022-11-13T07:50:28.843Z,1010.98
2022-11-13T07:51:28.766Z,1010.95
2022-11-13T07:52:28.767Z,1010.95
2022-11-13T07:53:28.777Z,1010.92
2022-11-13T07:54:28.746Z,1010.93
2022-11-13T07:55:28.716Z,1010.94
2022-11-13T07:56:28.716Z,1010.95
2022-11-13T07:57:28.718Z,1010.92
2022-11-13T07:58:28.923Z,1010.87
2022-11-13T07:59:28.686Z,1010.89
2022-11-13T08:00:28.734Z,1010.89
2022-11-13T08:01:28.713Z,1010.86
2022-11-13T08:02:28.627Z,1010.90
2022-11-13T08:03:28.614Z,1010.87
2022-11-13T08:04:28.615Z,1010.85
2022-11-13T08:05:28.593Z,1010.83
2022-11-13T08:06:28.584Z,1010.80
2022-11-13T08:07:28.560Z,1010.80
2022-11-13T08:08:28.930Z,1010.82
2022-11-13T08:09:28.565Z,1010.82
2022-11-13T08:10:28.534Z,1010.82
2022-11-13T08:11:28.505Z,1010.82
2022-11-13T08:12:28.505Z,1010.82
2022-11-13T08:13:28.493Z,1010.83
2022-11-13T08:14:28.504Z,1010.84
2022-11-13T08:15:28.459Z,1010.85
2022-11-13T08:16:28.455Z,1010.87
2022-11-13T08:17:28.451Z,1010.87
2022-11-13T08:18:28.660Z,1010.83
2022-11-13T08:19:28.475Z,1010.83
2022-11-13T08:20:28.459Z,1010.81
2022-11-13T08:21:28.396Z,1010.81
2022-11-13T08:22:28.549Z,1010.79
2022-11-13T08:23:28.361Z,1010.79
2022-11-13T08:24:28.375Z,1010.83
2022-11-13T08:25:28.327Z,1010.80
2022-11-13T08:26:28.325Z,1010.79
2022-11-13T08:27:28.305Z,1010.77
2022-11-13T08:28:28.632Z,1010.74
2022-11-13T08:29:28.295Z,1010.78
2022-11-13T08:30:28.316Z,1010.77
2022-11-13T08:31:28.255Z,1010.76
2022-11-13T08:32:28.247Z,1010.76
2022-11-13T08:33:28.233Z,1010.75
2022-11-13T08:34:28.224Z,1010.76
2022-11-13T08:35:29.751Z,1010.76
2022-11-13T08:36:28.206Z,1010.75
2022-11-13T08:37:28.176Z,1010.72
2022-11-13T08:38:28.549Z,1010.72
2022-11-13T08:39:28.145Z,1010.69
2022-11-13T08:40:28.167Z,1010.67
2022-11-13T08:41:28.133Z,1010.68
2022-11-13T08:42:28.125Z,1010.68
2022-11-13T08:43:28.115Z,1010.68
2022-11-13T08:44:28.094Z,1010.65
2022-11-13T08:45:28.085Z,1010.68
2022-11-13T08:46:28.066Z,1010.67
2022-11-13T08:47:29.637Z,1010.65
2022-11-13T08:48:28.293Z,1010.66
2022-11-13T08:49:28.023Z,1010.65
2022-11-13T08:50:28.033Z,1010.68
2022-11-13T08:51:27.992Z,1010.72
2022-11-13T08:52:27.985Z,1010.71
2022-11-13T08:53:27.994Z,1010.66
2022-11-13T08:54:27.976Z,1010.68
2022-11-13T08:55:27.981Z,1010.64
2022-11-13T08:56:27.939Z,1010.65
2022-11-13T08:57:27.934Z,1010.64
2022-11-13T08:58:28.423Z,1010.63
2022-11-13T08:59:27.894Z,1010.61
2022-11-13T09:00:27.915Z,1010.62
2022-11-13T09:01:27.867Z,1010.62
2022-11-13T09:02:27.874Z,1010.63
2022-11-13T09:03:27.905Z,1010.62
2022-11-13T09:04:27.833Z,1010.56
2022-11-13T09:05:27.855Z,1010.58
2022-11-13T09:06:27.805Z,1010.55
2022-11-13T09:07:27.829Z,1010.52
2022-11-13T09:08:28.114Z,1010.57
2022-11-13T09:09:27.770Z,1010.50
2022-11-13T09:10:27.774Z,1010.50
2022-11-13T09:11:27.742Z,1010.46
2022-11-13T09:12:27.720Z,1010.44
2022-11-13T09:13:27.718Z,1010.45
2022-11-13T09:14:27.703Z,1010.42
2022-11-13T09:15:27.703Z,1010.43
2022-11-13T09:16:27.677Z,1010.43
2022-11-13T09:17:27.663Z,1010.39
2022-11-13T09:18:27.996Z,1010.35
2022-11-13T09:19:27.652Z,1010.37
2022-11-13T09:20:27.663Z,1010.34
2022-11-13T09:21:27.594Z,1010.30
2022-11-13T09:22:27.602Z,1010.31
2022-11-13T09:23:27.588Z,1010.27
2022-11-13T09:24:27.572Z,1010.29
2022-11-13T09:25:31.368Z,1010.22
2022-11-13T09:26:28.543Z,1010.20
2022-11-13T09:27:27.531Z,1010.23
2022-11-13T09:28:27.931Z,1010.24
2022-11-13T09:29:27.502Z,1010.25
2022-11-13T09:30:27.528Z,1010.17
2022-11-13T09:31:27.482Z,1010.19
2022-11-13T09:32:27.492Z,1010.17
2022-11-13T09:33:27.454Z,1010.20
2022-11-13T09:34:27.472Z,1010.17
2022-11-13T09:35:27.452Z,1010.17
2022-11-13T09:36:27.422Z,1010.16
2022-11-13T09:37:27.419Z,1010.14
2022-11-13T09:38:27.720Z,1010.15
2022-11-13T09:39:27.372Z,1010.13
2022-11-13T09:40:27.380Z,1010.12
2022-11-13T09:41:27.351Z,1010.13
2022-11-13T09:42:27.345Z,1010.08
2022-11-13T09:43:27.311Z,1010.06
2022-11-13T09:44:27.313Z,1010.06
2022-11-13T09:45:27.323Z,1010.03
2022-11-13T09:46:27.292Z,1010.00
2022-11-13T09:47:27.274Z,1009.95
2022-11-13T09:48:27.755Z,1009.96
2022-11-13T09:49:27.258Z,1009.91
2022-11-13T09:50:27.241Z,1009.90
2022-11-13T09:51:27.221Z,1009.92
2022-11-13T09:52:27.211Z,1009.92
2022-11-13T09:53:27.192Z,1009.89
2022-11-13T09:54:27.192Z,1009.87
2022-11-13T09:55:27.205Z,1009.86
2022-11-13T09:56:27.152Z,1009.82
2022-11-13T09:57:27.154Z,1009.79
2022-11-13T09:58:27.481Z,1009.79
2022-11-13T09:59:27.122Z,1009.80
2022-11-13T10:00:27.120Z,1009.83
2022-11-13T10:01:27.156Z,1009.81
2022-11-13T10:02:27.081Z,1009.79
2022-11-13T10:03:46.586Z,1009.76
2022-11-13T10:04:28.110Z,1009.80
2022-11-13T10:05:27.041Z,1009.73
2022-11-13T10:06:27.029Z,1009.75
2022-11-13T10:07:27.010Z,1009.72
2022-11-13T10:08:27.454Z,1009.70
2022-11-13T10:09:26.993Z,1009.70
2022-11-13T10:10:26.998Z,1009.68
2022-11-13T10:11:26.991Z,1009.67
2022-11-13T10:12:26.952Z,1009.62
2022-11-13T10:13:26.965Z,1009.62
2022-11-13T10:14:26.931Z,1009.62
2022-11-13T10:15:26.903Z,1009.54
2022-11-13T10:16:26.923Z,1009.52
2022-11-13T10:17:26.883Z,1009.55
2022-11-13T10:18:27.325Z,1009.57
2022-11-13T10:19:26.860Z,1009.56
2022-11-13T10:20:26.843Z,1009.56
2022-11-13T10:21:26.851Z,1009.52
2022-11-13T10:22:32.671Z,1009.48
2022-11-13T10:23:28.496Z,1009.46
2022-11-13T10:24:26.918Z,1009.45
2022-11-13T10:25:26.783Z,1009.43
2022-11-13T10:26:27.082Z,1009.38
2022-11-13T10:27:26.939Z,1009.44
2022-11-13T10:29:27.728Z,1009.45
2022-11-13T10:30:26.735Z,1009.41
2022-11-13T10:31:26.721Z,1009.38
2022-11-13T10:32:26.695Z,1009.32
2022-11-13T10:33:27.030Z,1009.28
2022-11-13T10:34:27.270Z,1009.28
2022-11-13T10:35:26.652Z,1009.21
2022-11-13T10:36:26.651Z,1009.19
2022-11-13T10:37:26.612Z,1009.18
2022-11-13T10:38:26.605Z,1009.16
2022-11-13T10:39:26.596Z,1009.13
2022-11-13T10:40:26.581Z,1009.12
2022-11-13T10:41:26.580Z,1009.11
2022-11-13T10:42:26.572Z,1009.10
2022-11-13T10:43:26.897Z,1009.13
2022-11-13T10:44:26.547Z,1009.09
2022-11-13T10:45:26.520Z,1009.12
2022-11-13T10:46:26.499Z,1009.10
2022-11-13T10:47:56.652Z,1009.08
2022-11-13T10:48:27.898Z,1009.07
2022-11-13T10:49:26.523Z,1009.09
2022-11-13T10:50:26.442Z,1009.10
2022-11-13T10:51:26.434Z,1009.06
2022-11-13T10:52:26.430Z,1009.06
2022-11-13T10:53:26.852Z,1009.03
2022-11-13T10:54:26.372Z,1009.02
2022-11-13T10:55:26.726Z,1008.97
2022-11-13T10:56:26.358Z,1008.98
2022-11-13T10:57:26.371Z,1008.96
2022-11-13T10:58:26.574Z,1009.02
2022-11-13T10:59:26.341Z,1009.02
2022-11-13T11:00:26.301Z,1009.00
2022-11-13T11:01:26.383Z,1008.99
2022-11-13T11:02:26.302Z,1008.96
2022-11-13T11:03:26.271Z,1008.95
2022-11-13T11:04:26.262Z,1008.89
2022-11-13T11:05:26.251Z,1008.87
2022-11-13T11:06:42.113Z,1008.89
2022-11-13T11:07:27.286Z,1008.88
2022-11-13T11:08:26.604Z,1008.85
2022-11-13T11:09:26.194Z,1008.82
2022-11-13T11:10:26.182Z,1008.76
2022-11-13T11:11:26.171Z,1008.74
2022-11-13T11:12:30.835Z,1008.77
2022-11-13T11:13:27.150Z,1008.71
2022-11-13T11:14:26.130Z,1008.74
2022-11-13T11:15:26.122Z,1008.72
2022-11-13T11:16:26.103Z,1008.66
2022-11-13T11:17:26.122Z,1008.62
2022-11-13T11:18:26.352Z,1008.60
2022-11-13T11:19:26.060Z,1008.56
2022-11-13T11:20:26.048Z,1008.55
2022-11-13T11:21:26.088Z,1008.59
2022-11-13T11:22:26.067Z,1008.52
2022-11-13T11:23:26.008Z,1008.51
2022-11-13T11:24:26.017Z,1008.50
2022-11-13T11:25:25.991Z,1008.43
2022-11-13T11:26:25.972Z,1008.41
2022-11-13T11:27:25.981Z,1008.39
2022-11-13T11:28:26.137Z,1008.35
2022-11-13T11:29:25.934Z,1008.37
2022-11-13T11:30:25.921Z,1008.33
2022-11-13T11:31:25.911Z,1008.27
2022-11-13T11:32:25.922Z,1008.30
2022-11-13T11:33:25.901Z,1008.27
2022-11-13T11:34:25.862Z,1008.26
2022-11-13T11:35:25.957Z,1008.26
2022-11-13T11:36:25.841Z,1008.20
2022-11-13T11:37:25.856Z,1008.20
2022-11-13T11:38:26.000Z,1008.07
2022-11-13T11:39:25.816Z,1008.05
2022-11-13T11:40:25.800Z,1007.98
2022-11-13T11:41:25.837Z,1007.96
2022-11-13T11:42:25.791Z,1007.95
2022-11-13T11:43:25.781Z,1007.98
2022-11-13T11:44:25.762Z,1007.94
2022-11-13T11:45:25.721Z,1007.95
2022-11-13T11:46:25.710Z,1007.95
2022-11-13T11:47:25.780Z,1007.95
2022-11-13T11:48:25.802Z,1007.88
2022-11-13T11:49:25.671Z,1007.88
2022-11-13T11:50:25.843Z,1007.81
2022-11-13T11:51:25.651Z,1007.84
2022-11-13T11:52:25.693Z,1007.85
2022-11-13T11:53:25.621Z,1007.80
2022-11-13T11:54:25.612Z,1007.77
2022-11-13T11:55:25.600Z,1007.75
2022-11-13T11:56:25.590Z,1007.73
2022-11-13T11:57:25.600Z,1007.69
2022-11-13T11:58:25.632Z,1007.67
2022-11-13T11:59:25.540Z,1007.60
2022-11-13T12:00:25.520Z,1007.59
2022-11-13T12:01:25.520Z,1007.59
2022-11-13T12:02:25.541Z,1007.56
2022-11-13T12:03:25.470Z,1007.59
2022-11-13T12:04:25.480Z,1007.56
2022-11-13T12:05:25.528Z,1007.51
2022-11-13T12:06:25.441Z,1007.49
2022-11-13T12:07:25.506Z,1007.46